sensor_id;sensor_type;location;lat;lon;timestamp;temperature;humidity
67750;DHT22;54550;48.838;8.828;2024-01-30T00:00:22;2.30;99.90
67750;DHT22;54550;48.838;8.828;2024-01-30T00:02:47;2.30;99.90
67750;DHT22;54550;48.838;8.828;2024-01-30T00:05:13;2.30;99.90
67750;DHT22;54550;48.838;8.828;2024-01-30T00:07:38;2.30;99.90
67750;DHT22;54550;48.838;8.828;2024-01-30T00:10:04;2.40;99.90
67750;DHT22;54550;48.838;8.828;2024-01-30T00:12:31;2.70;99.90
67750;DHT22;54550;48.838;8.828;2024-01-30T00:14:57;2.90;99.90
67750;DHT22;54550;48.838;8.828;2024-01-30T00:17:23;2.90;99.90
67750;DHT22;54550;48.838;8.828;2024-01-30T00:19:50;2.80;99.90
67750;DHT22;54550;48.838;8.828;2024-01-30T00:22:15;2.70;99.90
67750;DHT22;54550;48.838;8.828;2024-01-30T00:24:41;2.50;99.90
67750;DHT22;54550;48.838;8.828;2024-01-30T00:27:07;2.50;99.90
67750;DHT22;54550;48.838;8.828;2024-01-30T00:29:33;2.50;99.90
67750;DHT22;54550;48.838;8.828;2024-01-30T00:31:59;2.60;99.90
67750;DHT22;54550;48.838;8.828;2024-01-30T00:34:24;2.80;99.90
67750;DHT22;54550;48.838;8.828;2024-01-30T00:36:50;2.90;99.90
67750;DHT22;54550;48.838;8.828;2024-01-30T00:39:15;3.10;99.90
67750;DHT22;54550;48.838;8.828;2024-01-30T00:41:41;3.10;99.90
67750;DHT22;54550;48.838;8.828;2024-01-30T00:44:06;3.20;99.90
67750;DHT22;54550;48.838;8.828;2024-01-30T00:46:32;3.10;99.90
67750;DHT22;54550;48.838;8.828;2024-01-30T00:48:57;2.90;99.90
67750;DHT22;54550;48.838;8.828;2024-01-30T00:51:23;2.60;99.90
67750;DHT22;54550;48.838;8.828;2024-01-30T00:53:48;2.40;99.90
67750;DHT22;54550;48.838;8.828;2024-01-30T00:56:13;2.30;99.90
67750;DHT22;54550;48.838;8.828;2024-01-30T00:58:39;2.20;99.90
67750;DHT22;54550;48.838;8.828;2024-01-30T01:01:05;2.00;99.90
67750;DHT22;54550;48.838;8.828;2024-01-30T01:03:32;2.00;99.90
67750;DHT22;54550;48.838;8.828;2024-01-30T01:05:58;2.00;99.90
67750;DHT22;54550;48.838;8.828;2024-01-30T01:08:23;1.90;99.90
67750;DHT22;54550;48.838;8.828;2024-01-30T01:10:49;1.80;99.90
67750;DHT22;54550;48.838;8.828;2024-01-30T01:13:14;1.80;99.90
67750;DHT22;54550;48.838;8.828;2024-01-30T01:15:42;1.90;99.90
67750;DHT22;54550;48.838;8.828;2024-01-30T01:18:07;1.90;99.90
67750;DHT22;54550;48.838;8.828;2024-01-30T01:20:33;1.90;99.90
67750;DHT22;54550;48.838;8.828;2024-01-30T01:22:58;1.90;99.90
67750;DHT22;54550;48.838;8.828;2024-01-30T01:25:24;2.00;99.90
67750;DHT22;54550;48.838;8.828;2024-01-30T01:27:49;1.80;99.90
67750;DHT22;54550;48.838;8.828;2024-01-30T01:30:17;1.80;99.90
67750;DHT22;54550;48.838;8.828;2024-01-30T01:32:49;1.60;99.90
67750;DHT22;54550;48.838;8.828;2024-01-30T01:35:23;1.70;99.90
67750;DHT22;54550;48.838;8.828;2024-01-30T01:37:50;1.80;99.90
67750;DHT22;54550;48.838;8.828;2024-01-30T01:40:26;1.80;99.90
67750;DHT22;54550;48.838;8.828;2024-01-30T01:42:52;1.90;99.90
67750;DHT22;54550;48.838;8.828;2024-01-30T01:45:18;1.90;99.90
67750;DHT22;54550;48.838;8.828;2024-01-30T01:47:44;2.00;99.90
67750;DHT22;54550;48.838;8.828;2024-01-30T01:50:15;1.90;99.90
67750;DHT22;54550;48.838;8.828;2024-01-30T01:52:43;1.80;99.90
67750;DHT22;54550;48.838;8.828;2024-01-30T01:55:09;1.80;99.90
67750;DHT22;54550;48.838;8.828;2024-01-30T01:57:35;2.00;99.90
67750;DHT22;54550;48.838;8.828;2024-01-30T02:00:01;2.00;99.90
67750;DHT22;54550;48.838;8.828;2024-01-30T02:02:46;1.80;99.90
67750;DHT22;54550;48.838;8.828;2024-01-30T02:05:12;1.70;99.90
67750;DHT22;54550;48.838;8.828;2024-01-30T02:07:38;1.60;99.90
67750;DHT22;54550;48.838;8.828;2024-01-30T02:10:03;1.70;99.90
67750;DHT22;54550;48.838;8.828;2024-01-30T02:12:29;1.70;99.90
67750;DHT22;54550;48.838;8.828;2024-01-30T02:14:55;1.50;99.90
67750;DHT22;54550;48.838;8.828;2024-01-30T02:17:20;1.50;99.90
67750;DHT22;54550;48.838;8.828;2024-01-30T02:19:46;1.40;99.90
67750;DHT22;54550;48.838;8.828;2024-01-30T02:22:11;1.30;99.90
67750;DHT22;54550;48.838;8.828;2024-01-30T02:24:38;1.30;99.90
67750;DHT22;54550;48.838;8.828;2024-01-30T02:27:03;1.20;99.90
67750;DHT22;54550;48.838;8.828;2024-01-30T02:29:29;1.20;99.90
67750;DHT22;54550;48.838;8.828;2024-01-30T02:31:54;1.30;99.90
67750;DHT22;54550;48.838;8.828;2024-01-30T02:34:20;1.40;99.90
67750;DHT22;54550;48.838;8.828;2024-01-30T02:36:46;1.40;99.90
67750;DHT22;54550;48.838;8.828;2024-01-30T02:39:11;1.50;99.90
67750;DHT22;54550;48.838;8.828;2024-01-30T02:41:37;1.60;99.90
67750;DHT22;54550;48.838;8.828;2024-01-30T02:44:03;1.60;99.90
67750;DHT22;54550;48.838;8.828;2024-01-30T02:46:28;1.50;99.90
67750;DHT22;54550;48.838;8.828;2024-01-30T02:48:53;1.50;99.90
67750;DHT22;54550;48.838;8.828;2024-01-30T02:51:19;1.50;99.90
67750;DHT22;54550;48.838;8.828;2024-01-30T02:53:44;1.50;99.90
67750;DHT22;54550;48.838;8.828;2024-01-30T02:56:10;1.40;99.90
67750;DHT22;54550;48.838;8.828;2024-01-30T02:58:36;1.30;99.90
67750;DHT22;54550;48.838;8.828;2024-01-30T03:01:02;1.20;99.90
67750;DHT22;54550;48.838;8.828;2024-01-30T03:03:27;1.10;99.90
67750;DHT22;54550;48.838;8.828;2024-01-30T03:05:53;1.00;99.90
67750;DHT22;54550;48.838;8.828;2024-01-30T03:08:18;0.90;99.90
67750;DHT22;54550;48.838;8.828;2024-01-30T03:10:44;0.90;99.90
67750;DHT22;54550;48.838;8.828;2024-01-30T03:13:09;1.10;99.90
67750;DHT22;54550;48.838;8.828;2024-01-30T03:15:35;1.20;99.90
67750;DHT22;54550;48.838;8.828;2024-01-30T03:18:01;1.30;99.90
67750;DHT22;54550;48.838;8.828;2024-01-30T03:20:27;1.20;99.90
67750;DHT22;54550;48.838;8.828;2024-01-30T03:22:53;1.50;99.90
67750;DHT22;54550;48.838;8.828;2024-01-30T03:25:19;1.50;99.90
67750;DHT22;54550;48.838;8.828;2024-01-30T03:27:44;1.50;99.90
67750;DHT22;54550;48.838;8.828;2024-01-30T03:30:10;1.60;99.90
67750;DHT22;54550;48.838;8.828;2024-01-30T03:32:35;1.70;99.90
67750;DHT22;54550;48.838;8.828;2024-01-30T03:35:01;1.70;99.90
67750;DHT22;54550;48.838;8.828;2024-01-30T03:37:26;1.70;99.90
67750;DHT22;54550;48.838;8.828;2024-01-30T03:39:52;1.70;99.90
67750;DHT22;54550;48.838;8.828;2024-01-30T03:42:17;1.70;99.90
67750;DHT22;54550;48.838;8.828;2024-01-30T03:44:42;1.70;99.90
67750;DHT22;54550;48.838;8.828;2024-01-30T03:47:08;1.60;99.90
67750;DHT22;54550;48.838;8.828;2024-01-30T03:49:33;1.40;99.90
67750;DHT22;54550;48.838;8.828;2024-01-30T03:51:59;1.40;99.90
67750;DHT22;54550;48.838;8.828;2024-01-30T03:54:24;1.40;99.90
67750;DHT22;54550;48.838;8.828;2024-01-30T03:56:50;1.20;99.90
67750;DHT22;54550;48.838;8.828;2024-01-30T03:59:15;1.00;99.90
67750;DHT22;54550;48.838;8.828;2024-01-30T04:01:42;0.70;99.90
67750;DHT22;54550;48.838;8.828;2024-01-30T04:04:08;0.50;99.90
67750;DHT22;54550;48.838;8.828;2024-01-30T04:06:33;0.40;99.90
67750;DHT22;54550;48.838;8.828;2024-01-30T04:08:59;0.20;99.90
67750;DHT22;54550;48.838;8.828;2024-01-30T04:11:24;0.10;99.90
67750;DHT22;54550;48.838;8.828;2024-01-30T04:13:50;0.00;99.90
67750;DHT22;54550;48.838;8.828;2024-01-30T04:16:19;0.10;99.90
67750;DHT22;54550;48.838;8.828;2024-01-30T04:18:45;0.50;99.90
67750;DHT22;54550;48.838;8.828;2024-01-30T04:21:10;0.80;99.90
67750;DHT22;54550;48.838;8.828;2024-01-30T04:23:36;1.10;99.90
67750;DHT22;54550;48.838;8.828;2024-01-30T04:26:01;1.30;99.90
67750;DHT22;54550;48.838;8.828;2024-01-30T04:28:27;1.30;99.90
67750;DHT22;54550;48.838;8.828;2024-01-30T04:30:52;1.20;99.90
67750;DHT22;54550;48.838;8.828;2024-01-30T04:33:18;1.20;99.90
67750;DHT22;54550;48.838;8.828;2024-01-30T04:35:43;1.10;99.90
67750;DHT22;54550;48.838;8.828;2024-01-30T04:38:09;1.10;99.90
67750;DHT22;54550;48.838;8.828;2024-01-30T04:40:34;1.00;99.90
67750;DHT22;54550;48.838;8.828;2024-01-30T04:42:59;0.90;99.90
67750;DHT22;54550;48.838;8.828;2024-01-30T04:45:25;0.90;99.90
67750;DHT22;54550;48.838;8.828;2024-01-30T04:47:50;0.80;99.90
67750;DHT22;54550;48.838;8.828;2024-01-30T04:50:16;0.80;99.90
67750;DHT22;54550;48.838;8.828;2024-01-30T04:52:41;0.80;99.90
67750;DHT22;54550;48.838;8.828;2024-01-30T04:55:07;0.70;99.90
67750;DHT22;54550;48.838;8.828;2024-01-30T04:57:32;0.70;99.90
67750;DHT22;54550;48.838;8.828;2024-01-30T04:59:59;0.70;99.90
67750;DHT22;54550;48.838;8.828;2024-01-30T05:02:24;0.60;99.90
67750;DHT22;54550;48.838;8.828;2024-01-30T05:04:50;0.60;99.90
67750;DHT22;54550;48.838;8.828;2024-01-30T05:07:15;0.60;99.90
67750;DHT22;54550;48.838;8.828;2024-01-30T05:09:40;0.50;99.90
67750;DHT22;54550;48.838;8.828;2024-01-30T05:12:06;0.40;99.90
67750;DHT22;54550;48.838;8.828;2024-01-30T05:14:32;0.50;99.90
67750;DHT22;54550;48.838;8.828;2024-01-30T05:16:58;0.50;99.90
67750;DHT22;54550;48.838;8.828;2024-01-30T05:19:23;0.40;99.90
67750;DHT22;54550;48.838;8.828;2024-01-30T05:21:49;0.60;99.90
67750;DHT22;54550;48.838;8.828;2024-01-30T05:24:14;0.60;99.90
67750;DHT22;54550;48.838;8.828;2024-01-30T05:26:40;0.60;99.90
67750;DHT22;54550;48.838;8.828;2024-01-30T05:29:06;0.60;99.90
67750;DHT22;54550;48.838;8.828;2024-01-30T05:31:31;0.70;99.90
67750;DHT22;54550;48.838;8.828;2024-01-30T05:33:57;0.60;99.90
67750;DHT22;54550;48.838;8.828;2024-01-30T05:36:22;0.50;99.90
67750;DHT22;54550;48.838;8.828;2024-01-30T05:38:48;0.40;99.90
67750;DHT22;54550;48.838;8.828;2024-01-30T05:41:13;0.40;99.90
67750;DHT22;54550;48.838;8.828;2024-01-30T05:43:39;0.40;99.90
67750;DHT22;54550;48.838;8.828;2024-01-30T05:46:04;0.50;99.90
67750;DHT22;54550;48.838;8.828;2024-01-30T05:48:30;0.60;99.90
67750;DHT22;54550;48.838;8.828;2024-01-30T05:50:56;0.70;99.90
67750;DHT22;54550;48.838;8.828;2024-01-30T05:53:21;0.90;99.90
67750;DHT22;54550;48.838;8.828;2024-01-30T05:55:47;0.80;99.90
67750;DHT22;54550;48.838;8.828;2024-01-30T05:58:12;0.90;99.90
67750;DHT22;54550;48.838;8.828;2024-01-30T06:00:38;0.90;99.90
67750;DHT22;54550;48.838;8.828;2024-01-30T06:03:03;0.90;99.90
67750;DHT22;54550;48.838;8.828;2024-01-30T06:05:29;0.80;99.90
67750;DHT22;54550;48.838;8.828;2024-01-30T06:07:54;0.70;99.90
67750;DHT22;54550;48.838;8.828;2024-01-30T06:10:20;0.70;99.90
67750;DHT22;54550;48.838;8.828;2024-01-30T06:12:45;0.70;99.90
67750;DHT22;54550;48.838;8.828;2024-01-30T06:15:11;0.80;99.90
67750;DHT22;54550;48.838;8.828;2024-01-30T06:17:38;0.80;99.90
67750;DHT22;54550;48.838;8.828;2024-01-30T06:20:03;0.80;99.90
67750;DHT22;54550;48.838;8.828;2024-01-30T06:22:29;0.90;99.90
67750;DHT22;54550;48.838;8.828;2024-01-30T06:24:54;0.90;99.90
67750;DHT22;54550;48.838;8.828;2024-01-30T06:27:20;0.90;99.90
67750;DHT22;54550;48.838;8.828;2024-01-30T06:29:45;0.80;99.90
67750;DHT22;54550;48.838;8.828;2024-01-30T06:32:11;0.70;99.90
67750;DHT22;54550;48.838;8.828;2024-01-30T06:34:36;0.70;99.90
67750;DHT22;54550;48.838;8.828;2024-01-30T06:37:04;0.50;99.90
67750;DHT22;54550;48.838;8.828;2024-01-30T06:39:29;0.40;99.90
67750;DHT22;54550;48.838;8.828;2024-01-30T06:41:55;0.40;99.90
67750;DHT22;54550;48.838;8.828;2024-01-30T06:44:20;0.40;99.90
67750;DHT22;54550;48.838;8.828;2024-01-30T06:46:46;0.40;99.90
67750;DHT22;54550;48.838;8.828;2024-01-30T06:49:11;0.30;99.90
67750;DHT22;54550;48.838;8.828;2024-01-30T06:51:37;0.20;99.90
67750;DHT22;54550;48.838;8.828;2024-01-30T06:54:02;0.10;99.90
67750;DHT22;54550;48.838;8.828;2024-01-30T06:56:28;0.10;99.90
67750;DHT22;54550;48.838;8.828;2024-01-30T06:58:53;0.30;99.90
67750;DHT22;54550;48.838;8.828;2024-01-30T07:01:19;0.40;99.90
67750;DHT22;54550;48.838;8.828;2024-01-30T07:03:44;0.30;99.90
67750;DHT22;54550;48.838;8.828;2024-01-30T07:06:10;0.30;99.90
67750;DHT22;54550;48.838;8.828;2024-01-30T07:08:38;0.30;99.90
67750;DHT22;54550;48.838;8.828;2024-01-30T07:11:07;0.30;99.90
67750;DHT22;54550;48.838;8.828;2024-01-30T07:13:33;0.20;99.90
67750;DHT22;54550;48.838;8.828;2024-01-30T07:15:59;0.10;99.90
67750;DHT22;54550;48.838;8.828;2024-01-30T07:18:24;0.10;99.90
67750;DHT22;54550;48.838;8.828;2024-01-30T07:20:50;0.30;99.90
67750;DHT22;54550;48.838;8.828;2024-01-30T07:23:15;0.40;99.90
67750;DHT22;54550;48.838;8.828;2024-01-30T07:25:45;0.40;99.90
67750;DHT22;54550;48.838;8.828;2024-01-30T07:28:11;0.40;99.90
67750;DHT22;54550;48.838;8.828;2024-01-30T07:30:42;0.40;99.90
67750;DHT22;54550;48.838;8.828;2024-01-30T07:33:07;0.60;99.90
67750;DHT22;54550;48.838;8.828;2024-01-30T07:35:34;0.60;99.90
67750;DHT22;54550;48.838;8.828;2024-01-30T07:37:59;0.70;99.90
67750;DHT22;54550;48.838;8.828;2024-01-30T07:40:25;0.90;99.90
67750;DHT22;54550;48.838;8.828;2024-01-30T07:42:50;1.00;99.90
67750;DHT22;54550;48.838;8.828;2024-01-30T07:45:16;1.20;99.90
67750;DHT22;54550;48.838;8.828;2024-01-30T07:47:41;1.30;99.90
67750;DHT22;54550;48.838;8.828;2024-01-30T07:50:07;1.40;99.90
67750;DHT22;54550;48.838;8.828;2024-01-30T07:52:33;1.40;99.90
67750;DHT22;54550;48.838;8.828;2024-01-30T07:54:58;1.40;99.90
67750;DHT22;54550;48.838;8.828;2024-01-30T07:57:24;1.40;99.90
67750;DHT22;54550;48.838;8.828;2024-01-30T07:59:50;1.50;99.90
67750;DHT22;54550;48.838;8.828;2024-01-30T08:02:15;1.60;99.90
67750;DHT22;54550;48.838;8.828;2024-01-30T08:04:41;1.70;99.90
67750;DHT22;54550;48.838;8.828;2024-01-30T08:07:06;1.80;99.90
67750;DHT22;54550;48.838;8.828;2024-01-30T08:09:32;1.90;99.90
67750;DHT22;54550;48.838;8.828;2024-01-30T08:11:57;2.10;99.90
67750;DHT22;54550;48.838;8.828;2024-01-30T08:14:23;2.40;99.90
67750;DHT22;54550;48.838;8.828;2024-01-30T08:16:48;2.60;99.90
67750;DHT22;54550;48.838;8.828;2024-01-30T08:19:14;2.70;99.90
67750;DHT22;54550;48.838;8.828;2024-01-30T08:21:39;2.80;99.90
67750;DHT22;54550;48.838;8.828;2024-01-30T08:24:05;2.90;99.90
67750;DHT22;54550;48.838;8.828;2024-01-30T08:26:31;3.00;99.90
67750;DHT22;54550;48.838;8.828;2024-01-30T08:28:57;3.10;99.90
67750;DHT22;54550;48.838;8.828;2024-01-30T08:31:22;3.20;99.90
67750;DHT22;54550;48.838;8.828;2024-01-30T08:33:48;3.40;99.90
67750;DHT22;54550;48.838;8.828;2024-01-30T08:36:15;3.50;99.90
67750;DHT22;54550;48.838;8.828;2024-01-30T08:38:40;3.70;99.90
67750;DHT22;54550;48.838;8.828;2024-01-30T08:41:07;3.90;99.90
67750;DHT22;54550;48.838;8.828;2024-01-30T08:43:32;4.10;99.90
67750;DHT22;54550;48.838;8.828;2024-01-30T08:46:01;4.20;99.90
67750;DHT22;54550;48.838;8.828;2024-01-30T08:48:26;4.30;99.90
67750;DHT22;54550;48.838;8.828;2024-01-30T08:50:52;4.30;99.90
67750;DHT22;54550;48.838;8.828;2024-01-30T08:53:17;4.50;99.90
67750;DHT22;54550;48.838;8.828;2024-01-30T08:55:43;4.50;99.90
67750;DHT22;54550;48.838;8.828;2024-01-30T08:58:09;4.70;99.90
67750;DHT22;54550;48.838;8.828;2024-01-30T09:00:34;4.80;99.90
67750;DHT22;54550;48.838;8.828;2024-01-30T09:03:00;4.90;99.90
67750;DHT22;54550;48.838;8.828;2024-01-30T09:05:25;5.00;99.90
67750;DHT22;54550;48.838;8.828;2024-01-30T09:07:51;5.30;99.90
67750;DHT22;54550;48.838;8.828;2024-01-30T09:10:16;5.50;99.90
67750;DHT22;54550;48.838;8.828;2024-01-30T09:12:42;5.80;99.90
67750;DHT22;54550;48.838;8.828;2024-01-30T09:15:08;6.10;99.90
67750;DHT22;54550;48.838;8.828;2024-01-30T09:17:33;6.30;99.90
67750;DHT22;54550;48.838;8.828;2024-01-30T09:19:59;6.40;99.90
67750;DHT22;54550;48.838;8.828;2024-01-30T09:22:24;6.50;99.90
67750;DHT22;54550;48.838;8.828;2024-01-30T09:24:50;6.60;99.90
67750;DHT22;54550;48.838;8.828;2024-01-30T09:27:15;6.60;99.90
67750;DHT22;54550;48.838;8.828;2024-01-30T09:29:41;6.70;99.90
67750;DHT22;54550;48.838;8.828;2024-01-30T09:32:06;6.70;99.90
67750;DHT22;54550;48.838;8.828;2024-01-30T09:34:32;6.90;99.90
67750;DHT22;54550;48.838;8.828;2024-01-30T09:36:58;7.20;99.90
67750;DHT22;54550;48.838;8.828;2024-01-30T09:39:23;7.30;99.90
67750;DHT22;54550;48.838;8.828;2024-01-30T09:42:02;7.40;99.90
67750;DHT22;54550;48.838;8.828;2024-01-30T09:44:30;7.30;99.90
67750;DHT22;54550;48.838;8.828;2024-01-30T09:46:56;7.20;99.90
67750;DHT22;54550;48.838;8.828;2024-01-30T09:49:23;7.20;99.90
67750;DHT22;54550;48.838;8.828;2024-01-30T09:51:50;7.20;99.90
67750;DHT22;54550;48.838;8.828;2024-01-30T09:54:16;7.10;99.90
67750;DHT22;54550;48.838;8.828;2024-01-30T09:56:42;7.00;99.90
67750;DHT22;54550;48.838;8.828;2024-01-30T09:59:07;7.20;99.90
67750;DHT22;54550;48.838;8.828;2024-01-30T10:01:34;7.10;99.90
67750;DHT22;54550;48.838;8.828;2024-01-30T10:03:59;7.10;99.90
67750;DHT22;54550;48.838;8.828;2024-01-30T10:06:26;7.10;99.90
67750;DHT22;54550;48.838;8.828;2024-01-30T10:08:51;7.20;99.90
67750;DHT22;54550;48.838;8.828;2024-01-30T10:11:17;7.20;99.90
67750;DHT22;54550;48.838;8.828;2024-01-30T10:13:42;7.10;99.90
67750;DHT22;54550;48.838;8.828;2024-01-30T10:16:08;7.10;99.90
67750;DHT22;54550;48.838;8.828;2024-01-30T10:18:34;7.30;99.90
67750;DHT22;54550;48.838;8.828;2024-01-30T10:20:59;7.60;99.90
67750;DHT22;54550;48.838;8.828;2024-01-30T10:23:24;7.80;99.90
67750;DHT22;54550;48.838;8.828;2024-01-30T10:25:50;8.10;99.90
67750;DHT22;54550;48.838;8.828;2024-01-30T10:28:16;8.00;99.90
67750;DHT22;54550;48.838;8.828;2024-01-30T10:30:41;8.10;99.90
67750;DHT22;54550;48.838;8.828;2024-01-30T10:33:07;8.20;99.90
67750;DHT22;54550;48.838;8.828;2024-01-30T10:35:32;8.60;99.90
67750;DHT22;54550;48.838;8.828;2024-01-30T10:37:59;8.70;99.90
67750;DHT22;54550;48.838;8.828;2024-01-30T10:40:27;9.00;99.90
67750;DHT22;54550;48.838;8.828;2024-01-30T10:42:53;9.30;99.90
67750;DHT22;54550;48.838;8.828;2024-01-30T10:45:20;9.30;99.90
67750;DHT22;54550;48.838;8.828;2024-01-30T10:47:50;9.60;99.90
67750;DHT22;54550;48.838;8.828;2024-01-30T10:50:15;9.60;99.90
67750;DHT22;54550;48.838;8.828;2024-01-30T10:52:41;9.60;99.90
67750;DHT22;54550;48.838;8.828;2024-01-30T10:55:10;9.60;99.90
67750;DHT22;54550;48.838;8.828;2024-01-30T10:57:36;9.30;99.90
67750;DHT22;54550;48.838;8.828;2024-01-30T11:00:02;9.00;99.90
67750;DHT22;54550;48.838;8.828;2024-01-30T11:02:30;8.80;99.90
67750;DHT22;54550;48.838;8.828;2024-01-30T11:04:57;8.80;99.90
67750;DHT22;54550;48.838;8.828;2024-01-30T11:07:29;8.80;99.90
67750;DHT22;54550;48.838;8.828;2024-01-30T11:12:24;8.90;99.90
67750;DHT22;54550;48.838;8.828;2024-01-30T11:14:50;9.10;99.90
67750;DHT22;54550;48.838;8.828;2024-01-30T11:17:15;9.20;99.90
67750;DHT22;54550;48.838;8.828;2024-01-30T11:19:41;9.40;99.90
67750;DHT22;54550;48.838;8.828;2024-01-30T11:22:07;9.40;99.90
67750;DHT22;54550;48.838;8.828;2024-01-30T11:24:39;9.60;99.90
67750;DHT22;54550;48.838;8.828;2024-01-30T11:27:08;9.80;99.90
67750;DHT22;54550;48.838;8.828;2024-01-30T11:29:33;10.00;99.90
67750;DHT22;54550;48.838;8.828;2024-01-30T11:32:00;10.20;99.90
67750;DHT22;54550;48.838;8.828;2024-01-30T11:34:25;10.40;99.90
67750;DHT22;54550;48.838;8.828;2024-01-30T11:37:01;10.50;99.90
67750;DHT22;54550;48.838;8.828;2024-01-30T11:39:29;10.80;99.90
67750;DHT22;54550;48.838;8.828;2024-01-30T11:41:55;10.80;98.50
67750;DHT22;54550;48.838;8.828;2024-01-30T11:44:20;10.90;99.00
67750;DHT22;54550;48.838;8.828;2024-01-30T11:46:51;11.10;99.70
67750;DHT22;54550;48.838;8.828;2024-01-30T11:49:17;11.20;98.70
67750;DHT22;54550;48.838;8.828;2024-01-30T11:51:43;11.30;98.90
67750;DHT22;54550;48.838;8.828;2024-01-30T11:54:08;11.50;98.20
67750;DHT22;54550;48.838;8.828;2024-01-30T11:56:34;11.60;98.10
67750;DHT22;54550;48.838;8.828;2024-01-30T11:58:59;11.70;97.90
67750;DHT22;54550;48.838;8.828;2024-01-30T12:01:27;12.10;98.20
67750;DHT22;54550;48.838;8.828;2024-01-30T12:03:53;12.50;97.40
67750;DHT22;54550;48.838;8.828;2024-01-30T12:06:18;12.50;97.60
67750;DHT22;54550;48.838;8.828;2024-01-30T12:08:55;12.40;97.00
67750;DHT22;54550;48.838;8.828;2024-01-30T12:11:21;12.50;97.60
67750;DHT22;54550;48.838;8.828;2024-01-30T12:13:46;12.90;97.10
67750;DHT22;54550;48.838;8.828;2024-01-30T12:16:12;13.20;97.00
67750;DHT22;54550;48.838;8.828;2024-01-30T12:18:38;14.00;96.20
67750;DHT22;54550;48.838;8.828;2024-01-30T12:21:04;14.80;95.10
67750;DHT22;54550;48.838;8.828;2024-01-30T12:23:30;14.90;94.70
67750;DHT22;54550;48.838;8.828;2024-01-30T12:25:55;14.80;94.60
67750;DHT22;54550;48.838;8.828;2024-01-30T12:28:21;14.70;94.60
67750;DHT22;54550;48.838;8.828;2024-01-30T12:30:47;15.10;94.80
67750;DHT22;54550;48.838;8.828;2024-01-30T12:33:16;15.00;95.10
67750;DHT22;54550;48.838;8.828;2024-01-30T12:35:45;15.30;94.40
67750;DHT22;54550;48.838;8.828;2024-01-30T12:38:10;15.50;94.10
67750;DHT22;54550;48.838;8.828;2024-01-30T12:40:36;15.90;94.60
67750;DHT22;54550;48.838;8.828;2024-01-30T12:43:01;16.20;93.70
67750;DHT22;54550;48.838;8.828;2024-01-30T12:45:27;17.00;93.60
67750;DHT22;54550;48.838;8.828;2024-01-30T12:47:52;17.80;91.80
67750;DHT22;54550;48.838;8.828;2024-01-30T12:50:18;17.30;91.50
67750;DHT22;54550;48.838;8.828;2024-01-30T12:52:44;17.60;91.90
67750;DHT22;54550;48.838;8.828;2024-01-30T12:55:10;18.50;91.50
67750;DHT22;54550;48.838;8.828;2024-01-30T12:57:35;18.20;90.40
67750;DHT22;54550;48.838;8.828;2024-01-30T13:00:01;17.80;90.70
67750;DHT22;54550;48.838;8.828;2024-01-30T13:02:26;17.60;91.40
67750;DHT22;54550;48.838;8.828;2024-01-30T13:05:00;17.90;91.60
67750;DHT22;54550;48.838;8.828;2024-01-30T13:07:25;18.50;91.50
67750;DHT22;54550;48.838;8.828;2024-01-30T13:09:50;18.50;90.70
67750;DHT22;54550;48.838;8.828;2024-01-30T13:12:16;18.80;91.00
67750;DHT22;54550;48.838;8.828;2024-01-30T13:14:42;18.90;88.70
67750;DHT22;54550;48.838;8.828;2024-01-30T13:17:07;18.30;90.70
67750;DHT22;54550;48.838;8.828;2024-01-30T13:19:33;18.20;91.60
67750;DHT22;54550;48.838;8.828;2024-01-30T13:21:59;17.80;90.70
67750;DHT22;54550;48.838;8.828;2024-01-30T13:24:24;17.80;91.00
67750;DHT22;54550;48.838;8.828;2024-01-30T13:26:50;17.40;91.20
67750;DHT22;54550;48.838;8.828;2024-01-30T13:29:15;16.80;92.30
67750;DHT22;54550;48.838;8.828;2024-01-30T13:31:41;16.20;93.20
67750;DHT22;54550;48.838;8.828;2024-01-30T13:34:06;15.50;93.50
67750;DHT22;54550;48.838;8.828;2024-01-30T13:36:32;15.10;93.60
67750;DHT22;54550;48.838;8.828;2024-01-30T13:38:58;14.90;93.80
67750;DHT22;54550;48.838;8.828;2024-01-30T13:41:23;15.00;93.40
67750;DHT22;54550;48.838;8.828;2024-01-30T13:43:49;15.00;93.00
67750;DHT22;54550;48.838;8.828;2024-01-30T13:46:14;15.10;93.00
67750;DHT22;54550;48.838;8.828;2024-01-30T13:48:40;15.40;92.80
67750;DHT22;54550;48.838;8.828;2024-01-30T13:51:05;15.70;92.80
67750;DHT22;54550;48.838;8.828;2024-01-30T13:53:31;15.80;92.30
67750;DHT22;54550;48.838;8.828;2024-01-30T13:55:56;15.70;92.80
67750;DHT22;54550;48.838;8.828;2024-01-30T13:58:22;15.90;92.40
67750;DHT22;54550;48.838;8.828;2024-01-30T14:00:47;15.70;92.00
67750;DHT22;54550;48.838;8.828;2024-01-30T14:03:14;15.00;92.30
67750;DHT22;54550;48.838;8.828;2024-01-30T14:05:39;14.90;93.30
67750;DHT22;54550;48.838;8.828;2024-01-30T14:08:05;14.80;93.30
67750;DHT22;54550;48.838;8.828;2024-01-30T14:10:32;14.60;93.20
67750;DHT22;54550;48.838;8.828;2024-01-30T14:12:57;14.60;94.40
67750;DHT22;54550;48.838;8.828;2024-01-30T14:15:23;14.50;94.10
67750;DHT22;54550;48.838;8.828;2024-01-30T14:17:48;14.20;94.60
67750;DHT22;54550;48.838;8.828;2024-01-30T14:20:15;14.20;94.30
67750;DHT22;54550;48.838;8.828;2024-01-30T14:22:43;14.00;94.50
67750;DHT22;54550;48.838;8.828;2024-01-30T14:25:08;13.90;94.20
67750;DHT22;54550;48.838;8.828;2024-01-30T14:27:34;13.70;94.40
67750;DHT22;54550;48.838;8.828;2024-01-30T14:30:00;13.40;94.70
67750;DHT22;54550;48.838;8.828;2024-01-30T14:32:25;13.20;95.10
67750;DHT22;54550;48.838;8.828;2024-01-30T14:34:51;13.00;95.40
67750;DHT22;54550;48.838;8.828;2024-01-30T14:37:17;12.80;95.60
67750;DHT22;54550;48.838;8.828;2024-01-30T14:39:43;12.60;95.90
67750;DHT22;54550;48.838;8.828;2024-01-30T14:42:09;12.50;96.30
67750;DHT22;54550;48.838;8.828;2024-01-30T14:44:35;12.30;96.90
67750;DHT22;54550;48.838;8.828;2024-01-30T14:47:00;12.10;97.10
67750;DHT22;54550;48.838;8.828;2024-01-30T14:49:26;12.00;97.10
67750;DHT22;54550;48.838;8.828;2024-01-30T14:51:51;11.90;97.40
67750;DHT22;54550;48.838;8.828;2024-01-30T14:54:17;11.70;97.80
67750;DHT22;54550;48.838;8.828;2024-01-30T14:56:42;11.60;98.40
67750;DHT22;54550;48.838;8.828;2024-01-30T14:59:07;11.40;99.00
67750;DHT22;54550;48.838;8.828;2024-01-30T15:01:33;11.20;99.50
67750;DHT22;54550;48.838;8.828;2024-01-30T15:03:58;11.00;99.90
67750;DHT22;54550;48.838;8.828;2024-01-30T15:06:24;10.90;99.90
67750;DHT22;54550;48.838;8.828;2024-01-30T15:08:51;10.80;99.90
67750;DHT22;54550;48.838;8.828;2024-01-30T15:11:17;10.60;99.90
67750;DHT22;54550;48.838;8.828;2024-01-30T15:13:43;10.50;99.90
67750;DHT22;54550;48.838;8.828;2024-01-30T15:16:08;10.40;99.90
67750;DHT22;54550;48.838;8.828;2024-01-30T15:18:34;10.30;99.90
67750;DHT22;54550;48.838;8.828;2024-01-30T15:20:59;10.20;99.90
67750;DHT22;54550;48.838;8.828;2024-01-30T15:23:25;10.10;99.90
67750;DHT22;54550;48.838;8.828;2024-01-30T15:25:50;10.00;99.90
67750;DHT22;54550;48.838;8.828;2024-01-30T15:28:15;9.90;99.90
67750;DHT22;54550;48.838;8.828;2024-01-30T15:30:42;9.90;99.90
67750;DHT22;54550;48.838;8.828;2024-01-30T15:33:09;9.80;99.90
67750;DHT22;54550;48.838;8.828;2024-01-30T15:35:34;9.80;99.90